Time;durP1;ratioP1;P1;durP2;ratioP2;P2;SDS_P1;SDS_P2;PMS_P1;PMS_P2;Temp;Humidity;BMP_temperature;BMP_pressure;BME280_temperature;BME280_humidity;BME280_pressure;Samples;Min_cycle;Max_cycle;Signal;HPM_P1;HPM_P2
2022/11/29 00:00:10;;;;;;;7.28;2.00;;;7.50;99.90;;;;;;5080695;28;20012;-83
2022/11/29 00:02:35;;;;;;;4.57;1.73;;;7.60;99.90;;;;;;5072850;28;20028;-83
2022/11/29 00:05:01;;;;;;;5.70;1.77;;;7.40;99.90;;;;;;5086579;28;20401;-83
2022/11/29 00:07:27;;;;;;;4.65;1.90;;;7.50;99.90;;;;;;5081552;28;20020;-83
2022/11/29 00:09:52;;;;;;;7.28;2.00;;;7.50;99.90;;;;;;5078052;28;20390;-82
2022/11/29 00:12:18;;;;;;;5.57;1.80;;;7.50;99.90;;;;;;5083190;28;20383;-82
2022/11/29 00:14:44;;;;;;;4.82;1.73;;;7.50;99.90;;;;;;5086323;28;20069;-83
2022/11/29 00:17:09;;;;;;;2.13;1.27;;;7.50;99.90;;;;;;5072562;28;20040;-83
2022/11/29 00:19:35;;;;;;;5.68;1.60;;;7.50;99.90;;;;;;5086161;28;20035;-83
2022/11/29 00:22:02;;;;;;;3.72;2.13;;;7.50;99.90;;;;;;5072518;28;20579;-83
2022/11/29 00:24:30;;;;;;;1.98;1.23;;;7.40;99.90;;;;;;5085989;28;20028;-83
2022/11/29 00:26:56;;;;;;;4.03;2.10;;;7.40;99.90;;;;;;5081008;28;20024;-82
2022/11/29 00:29:21;;;;;;;2.53;1.48;;;7.40;99.90;;;;;;5079201;28;20044;-82
2022/11/29 00:31:47;;;;;;;7.15;1.90;;;7.50;99.90;;;;;;5090938;28;20113;-82
2022/11/29 00:34:13;;;;;;;3.28;1.98;;;7.50;99.90;;;;;;5078615;28;20074;-83
2022/11/29 00:36:39;;;;;;;7.72;2.03;;;7.50;99.90;;;;;;5083697;28;20029;-83
2022/11/29 00:39:05;;;;;;;5.72;1.98;;;7.50;99.90;;;;;;5085654;28;20028;-82
2022/11/29 00:41:31;;;;;;;4.85;1.77;;;7.50;99.90;;;;;;5079710;28;20383;-82
2022/11/29 00:43:57;;;;;;;5.07;1.77;;;7.50;99.90;;;;;;5077540;28;20056;-82
2022/11/29 00:46:24;;;;;;;4.75;1.50;;;7.60;99.90;;;;;;5078602;28;20441;-82
2022/11/29 00:48:49;;;;;;;5.30;1.80;;;7.60;99.90;;;;;;5089157;28;20525;-82
2022/11/29 00:51:15;;;;;;;2.88;1.40;;;7.70;99.90;;;;;;5072147;28;20016;-82
2022/11/29 00:53:41;;;;;;;3.72;2.10;;;7.70;99.90;;;;;;5087035;28;20382;-82
2022/11/29 00:56:07;;;;;;;2.75;1.88;;;7.70;99.90;;;;;;5083912;28;20012;-82
2022/11/29 00:58:34;;;;;;;4.93;1.40;;;7.80;99.90;;;;;;5074300;28;20025;-83
2022/11/29 01:00:59;;;;;;;6.80;2.15;;;7.80;99.90;;;;;;5083550;28;20059;-82
2022/11/29 01:03:25;;;;;;;5.45;1.63;;;7.80;99.90;;;;;;5085561;28;20082;-83
2022/11/29 01:05:52;;;;;;;7.38;2.08;;;7.70;99.90;;;;;;5078117;28;20094;-82
2022/11/29 01:08:18;;;;;;;4.25;1.33;;;7.70;99.90;;;;;;5078111;28;20082;-82
2022/11/29 01:10:43;;;;;;;4.20;1.40;;;7.70;99.90;;;;;;5084031;28;20013;-82
2022/11/29 01:13:09;;;;;;;2.45;1.30;;;7.70;99.90;;;;;;5072199;28;20032;-82
2022/11/29 01:15:36;;;;;;;7.32;2.45;;;7.70;99.90;;;;;;5082153;28;20017;-82
2022/11/29 01:18:01;;;;;;;4.38;1.85;;;7.70;99.90;;;;;;5085406;28;20085;-82
2022/11/29 01:20:27;;;;;;;4.18;1.88;;;7.70;99.90;;;;;;5077763;28;20024;-83
2022/11/29 01:22:53;;;;;;;5.30;1.55;;;7.70;99.90;;;;;;5078125;28;20483;-82
2022/11/29 01:25:18;;;;;;;6.72;1.88;;;7.60;99.90;;;;;;5083861;28;20448;-82
2022/11/29 01:27:45;;;;;;;5.45;1.55;;;7.60;99.90;;;;;;5084327;28;20028;-83
2022/11/29 01:30:11;;;;;;;3.42;1.52;;;7.60;99.90;;;;;;5078604;28;20791;-82
2022/11/29 01:32:37;;;;;;;3.83;1.40;;;7.60;99.90;;;;;;5090685;28;20035;-83
2022/11/29 01:35:05;;;;;;;5.28;1.50;;;7.50;99.90;;;;;;5078307;28;20517;-82
2022/11/29 01:37:31;;;;;;;5.70;1.80;;;7.50;99.90;;;;;;5089279;28;20020;-82
2022/11/29 01:39:57;;;;;;;5.53;1.55;;;7.50;99.90;;;;;;5078900;28;20019;-82
2022/11/29 01:42:23;;;;;;;4.07;1.80;;;7.50;99.90;;;;;;5077220;28;20024;-82
2022/11/29 01:44:49;;;;;;;2.65;1.52;;;7.50;99.90;;;;;;5091310;28;20052;-82
2022/11/29 01:47:16;;;;;;;2.78;1.20;;;7.60;99.90;;;;;;5079095;28;20405;-82
2022/11/29 01:49:46;;;;;;;4.47;1.70;;;7.60;99.90;;;;;;5090809;28;20034;-82
2022/11/29 01:52:26;;;;;;;3.92;1.40;;;7.50;99.90;;;;;;5090520;28;20038;-83
2022/11/29 01:54:57;;;;;;;3.83;1.33;;;7.50;99.90;;;;;;5090844;28;20035;-82
2022/11/29 01:57:23;;;;;;;3.45;1.30;;;7.50;99.90;;;;;;5087656;28;20021;-83
2022/11/29 01:59:53;;;;;;;2.33;1.52;;;7.50;99.90;;;;;;5076559;28;20032;-82
2022/11/29 02:02:34;;;;;;;6.55;1.38;;;7.50;99.90;;;;;;5090763;28;20073;-82
2022/11/29 02:05:02;;;;;;;4.78;1.42;;;7.50;99.90;;;;;;5090070;28;20020;-82
2022/11/29 02:07:27;;;;;;;2.17;1.20;;;7.50;99.90;;;;;;5090723;28;20024;-83
2022/11/29 02:09:53;;;;;;;3.33;1.38;;;7.40;99.90;;;;;;5090231;28;20497;-82
2022/11/29 02:12:42;;;;;;;5.35;1.42;;;7.50;99.90;;;;;;5088864;28;20489;-82
2022/11/29 02:15:17;;;;;;;3.53;1.27;;;7.50;99.90;;;;;;5090237;28;20034;-82
2022/11/29 02:18:06;;;;;;;1.92;1.13;;;7.40;99.90;;;;;;5090582;28;20017;-82
2022/11/29 02:20:54;;;;;;;4.88;1.92;;;7.40;99.90;;;;;;5090100;28;20039;-82
2022/11/29 02:23:34;;;;;;;4.18;1.35;;;7.50;99.90;;;;;;5089128;28;20028;-82
2022/11/29 02:26:06;;;;;;;3.40;1.63;;;7.50;99.90;;;;;;5090925;28;20031;-82
2022/11/29 02:28:56;;;;;;;;;;;7.50;99.90;;;;;;5088889;28;20052;-83
2022/11/29 02:31:47;;;;;;;4.95;1.80;;;7.50;99.90;;;;;;5084613;28;19981;-83
2022/11/29 02:34:28;;;;;;;7.80;2.00;;;7.50;99.90;;;;;;5070165;28;20024;-83
2022/11/29 02:37:00;;;;;;;5.13;2.00;;;7.60;99.90;;;;;;5070355;28;20021;-83
2022/11/29 02:39:42;;;;;;;3.47;1.38;;;7.60;99.90;;;;;;5070442;28;20039;-82
2022/11/29 02:42:26;;;;;;;3.20;1.65;;;7.50;99.90;;;;;;5069893;28;20026;-83
2022/11/29 02:45:14;;;;;;;5.88;1.52;;;7.50;99.90;;;;;;5070153;28;20024;-82
2022/11/29 02:47:52;;;;;;;5.25;1.20;;;7.50;99.90;;;;;;5079801;28;20056;-82
2022/11/29 02:50:23;;;;;;;3.13;1.35;;;7.50;99.90;;;;;;5080143;28;20252;-82
2022/11/29 02:53:03;;;;;;;2.55;1.50;;;7.40;99.90;;;;;;5085468;28;20055;-82
2022/11/29 02:55:54;;;;;;;2.45;1.10;;;7.50;99.90;;;;;;5086703;28;20028;-82
2022/11/29 02:58:34;;;;;;;2.13;0.90;;;7.40;99.90;;;;;;5085944;28;20024;-82
2022/11/29 03:01:23;;;;;;;1.80;0.80;;;7.40;99.90;;;;;;5080478;28;20070;-81
2022/11/29 03:04:12;;;;;;;5.78;1.10;;;7.40;99.90;;;;;;5086889;28;20039;-82
2022/11/29 03:06:54;;;;;;;1.70;0.93;;;7.40;99.90;;;;;;5075492;28;20044;-82
2022/11/29 03:09:39;;;;;;;3.70;1.80;;;7.50;99.90;;;;;;5084358;28;20059;-82
2022/11/29 03:12:30;;;;;;;3.30;1.38;;;7.50;99.90;;;;;;5093497;28;20031;-82
2022/11/29 03:15:02;;;;;;;;;;;7.50;99.90;;;;;;5079445;28;20078;-82
2022/11/29 03:17:36;;;;;;;;;;;7.60;99.90;;;;;;5083292;28;19912;-82
2022/11/29 03:20:25;;;;;;;2.38;1.20;;;7.60;99.90;;;;;;5087506;28;19905;-82
2022/11/29 03:23:05;;;;;;;5.80;1.50;;;7.60;99.90;;;;;;5086986;28;20028;-82
2022/11/29 03:25:34;;;;;;;4.55;1.50;;;7.60;99.90;;;;;;5075826;28;20025;-82
2022/11/29 03:28:23;;;;;;;3.28;1.50;;;7.70;99.90;;;;;;5076724;28;20036;-82
2022/11/29 03:31:08;;;;;;;4.20;2.28;;;7.70;99.90;;;;;;5084014;28;20040;-82
2022/11/29 03:33:44;;;;;;;3.25;1.20;;;7.80;99.90;;;;;;5073226;28;20013;-82
2022/11/29 03:36:24;;;;;;;4.22;1.83;;;7.80;99.90;;;;;;5073214;28;20308;-82
2022/11/29 03:38:54;;;;;;;3.15;1.15;;;7.80;99.90;;;;;;5073034;28;20016;-82
2022/11/29 03:41:25;;;;;;;2.25;1.20;;;7.80;99.90;;;;;;5072535;28;20029;-82
2022/11/29 03:44:07;;;;;;;1.42;1.23;;;7.80;99.90;;;;;;5072687;28;20059;-82
2022/11/29 03:47:00;;;;;;;2.40;1.17;;;7.80;99.90;;;;;;5073032;28;20039;-82
2022/11/29 03:49:34;;;;;;;2.95;1.10;;;7.80;99.90;;;;;;5073015;28;20051;-82
2022/11/29 03:52:21;;;;;;;4.18;1.27;;;7.80;99.90;;;;;;5073494;28;20122;-82
2022/11/29 03:55:10;;;;;;;3.97;1.40;;;7.80;99.90;;;;;;5071451;28;20060;-82
2022/11/29 03:58:11;;;;;;;2.75;1.38;;;7.80;99.90;;;;;;5074691;28;20017;-82
2022/11/29 04:00:49;;;;;;;4.07;1.05;;;7.80;99.90;;;;;;5082306;28;20505;-83
2022/11/29 04:03:39;;;;;;;3.53;1.58;;;7.80;99.90;;;;;;5092619;28;20100;-83
2022/11/29 04:06:42;;;;;;;2.35;1.20;;;7.80;99.90;;;;;;5093122;28;20028;-82
2022/11/29 04:09:10;;;;;;;4.60;1.50;;;7.80;99.90;;;;;;5092552;28;20119;-82
2022/11/29 04:12:01;;;;;;;6.15;1.38;;;7.80;99.90;;;;;;5090979;28;20063;-82
2022/11/29 04:14:44;;;;;;;5.47;1.50;;;7.80;99.90;;;;;;5092699;28;20033;-82
2022/11/29 04:17:55;;;;;;;4.70;1.52;;;7.80;99.90;;;;;;5092352;28;20028;-82
2022/11/29 04:20:54;;;;;;;6.10;1.38;;;7.80;99.90;;;;;;5093116;28;20100;-82
2022/11/29 04:23:23;;;;;;;2.50;1.10;;;7.90;99.90;;;;;;5092214;28;20028;-82
2022/11/29 04:25:57;;;;;;;2.42;1.20;;;7.90;99.90;;;;;;5092206;28;20398;-82
2022/11/29 04:28:53;;;;;;;3.45;1.10;;;7.90;99.90;;;;;;5092141;28;20048;-81
2022/11/29 04:31:30;;;;;;;3.95;1.63;;;7.90;99.90;;;;;;5074940;28;20081;-82
2022/11/29 04:34:25;;;;;;;3.67;0.93;;;7.90;99.90;;;;;;5072013;28;20037;-83
2022/11/29 04:37:14;;;;;;;3.80;1.00;;;7.90;99.90;;;;;;5070921;28;20501;-82
2022/11/29 04:40:02;;;;;;;2.67;1.00;;;8.00;99.90;;;;;;5078376;28;20039;-82
2022/11/29 04:42:51;;;;;;;5.20;1.20;;;8.00;99.90;;;;;;5091944;28;20016;-83
2022/11/29 04:45:45;;;;;;;5.18;1.15;;;7.90;99.90;;;;;;5092071;28;20024;-82
2022/11/29 04:48:53;;;;;;;3.33;1.08;;;8.00;99.90;;;;;;5092119;28;20078;-83
2022/11/29 04:51:30;;;;;;;2.30;0.90;;;8.00;99.90;;;;;;5092098;28;20028;-82
2022/11/29 04:54:02;;;;;;;2.30;1.08;;;8.00;99.90;;;;;;5091888;28;20027;-82
2022/11/29 04:56:33;;;;;;;4.10;1.10;;;8.00;99.90;;;;;;5090545;28;20031;-82
2022/11/29 04:59:45;;;;;;;2.53;0.93;;;8.00;99.90;;;;;;5073046;28;20165;-82
2022/11/29 05:02:32;;;;;;;0.82;0.75;;;7.90;99.90;;;;;;5007648;28;20066;-82
2022/11/29 05:05:12;;;;;;;3.78;1.23;;;7.90;99.90;;;;;;5009564;28;20032;-83
2022/11/29 05:08:39;;;;;;;5.55;1.17;;;7.90;99.90;;;;;;5008548;28;20065;-82
2022/11/29 05:11:14;;;;;;;1.48;0.85;;;7.90;99.90;;;;;;4950661;29;20027;-82
2022/11/29 05:13:48;;;;;;;3.00;1.02;;;7.90;99.90;;;;;;4950744;29;20296;-82
2022/11/29 05:16:41;;;;;;;2.55;1.23;;;7.90;99.90;;;;;;4950911;28;20221;-83
2022/11/29 05:19:25;;;;;;;5.55;1.30;;;7.90;99.90;;;;;;4950600;29;20104;-82
2022/11/29 05:22:29;;;;;;;2.55;1.00;;;7.90;99.90;;;;;;4950425;29;20109;-82
2022/11/29 05:25:24;;;;;;;2.35;1.10;;;8.00;99.90;;;;;;4950334;29;20074;-83
2022/11/29 05:28:16;;;;;;;2.75;1.05;;;8.00;99.90;;;;;;4950724;28;20060;-83
2022/11/29 05:31:03;;;;;;;2.90;1.30;;;8.00;99.90;;;;;;4951210;28;20062;-82
2022/11/29 05:33:56;;;;;;;5.55;1.42;;;8.10;99.90;;;;;;4994971;28;20108;-83
2022/11/29 05:36:42;;;;;;;4.60;2.10;;;8.10;99.90;;;;;;5015466;28;20112;-83
2022/11/29 05:39:38;;;;;;;3.35;1.27;;;8.10;99.90;;;;;;5015829;28;20036;-83
2022/11/29 05:42:25;;;;;;;4.43;1.63;;;8.00;99.90;;;;;;5016846;28;20034;-82
2022/11/29 05:45:12;;;;;;;4.15;2.00;;;8.00;99.90;;;;;;5033098;28;20040;-82
2022/11/29 05:48:04;;;;;;;4.45;1.70;;;8.00;99.90;;;;;;5068875;28;20043;-83
2022/11/29 05:50:36;;;;;;;7.03;2.40;;;8.10;99.90;;;;;;5047112;28;20095;-83
2022/11/29 05:53:22;;;;;;;5.90;1.85;;;8.00;99.90;;;;;;5060498;28;20029;-83
2022/11/29 05:56:12;;;;;;;4.93;1.67;;;8.10;99.90;;;;;;5057582;28;20047;-83
2022/11/29 05:58:53;;;;;;;4.43;1.48;;;8.00;99.90;;;;;;5055963;28;20033;-82
2022/11/29 06:01:31;;;;;;;4.60;1.80;;;8.10;99.90;;;;;;5067294;28;20013;-83
2022/11/29 06:04:05;;;;;;;3.85;1.60;;;8.10;99.90;;;;;;5064056;28;20009;-83
2022/11/29 06:06:30;;;;;;;3.15;1.38;;;8.10;99.90;;;;;;5063991;28;20032;-83
2022/11/29 06:09:07;;;;;;;4.60;1.58;;;8.10;99.90;;;;;;5056677;28;20031;-83
2022/11/29 06:11:41;;;;;;;7.15;1.67;;;8.10;99.90;;;;;;5056788;28;20024;-83
2022/11/29 06:14:51;;;;;;;5.28;1.52;;;8.10;99.90;;;;;;5061018;28;20119;-83
2022/11/29 06:17:54;;;;;;;3.05;1.35;;;8.10;99.90;;;;;;5059836;28;20048;-83
2022/11/29 06:20:42;;;;;;;6.03;1.67;;;8.10;99.90;;;;;;5053335;28;20048;-83
2022/11/29 06:23:30;;;;;;;3.80;1.30;;;8.10;99.90;;;;;;5054680;28;20029;-83
2022/11/29 06:26:40;;;;;;;4.95;1.20;;;8.20;99.90;;;;;;5063971;28;20028;-83
2022/11/29 06:29:50;;;;;;;6.93;1.75;;;8.10;99.90;;;;;;5059169;28;20051;-83
2022/11/29 06:32:33;;;;;;;4.53;1.42;;;8.20;99.90;;;;;;5085611;28;20028;-83
2022/11/29 06:35:21;;;;;;;3.92;1.60;;;8.20;99.90;;;;;;5078236;28;20052;-83
2022/11/29 06:37:51;;;;;;;2.72;1.38;;;8.20;99.90;;;;;;5076932;28;20024;-83
2022/11/29 06:40:17;;;;;;;4.78;1.60;;;8.20;99.90;;;;;;5078840;28;20052;-83
2022/11/29 06:42:43;;;;;;;5.70;1.50;;;8.20;99.90;;;;;;5073740;28;20501;-83
2022/11/29 06:45:12;;;;;;;3.45;1.40;;;8.20;99.90;;;;;;5079021;28;20086;-82
2022/11/29 06:47:50;;;;;;;6.80;2.33;;;8.20;99.90;;;;;;5089129;28;20024;-82
2022/11/29 06:50:28;;;;;;;3.70;1.50;;;8.30;99.90;;;;;;5090143;28;20095;-82
2022/11/29 06:53:15;;;;;;;5.57;1.60;;;8.30;99.90;;;;;;5074058;28;20115;-82
2022/11/29 06:55:59;;;;;;;6.78;2.08;;;8.30;99.90;;;;;;5074605;28;20023;-82
2022/11/29 06:58:25;;;;;;;5.95;1.63;;;8.30;99.90;;;;;;5076718;28;20032;-82
2022/11/29 07:01:09;;;;;;;3.85;1.55;;;8.30;99.90;;;;;;5093843;28;20524;-83
2022/11/29 07:03:58;;;;;;;4.00;1.48;;;8.30;99.90;;;;;;5076842;28;20191;-83
2022/11/29 07:06:26;;;;;;;4.97;1.40;;;8.30;99.90;;;;;;5077978;28;20032;-82
2022/11/29 07:08:57;;;;;;;6.15;1.58;;;8.30;99.90;;;;;;5082636;28;20167;-82
2022/11/29 07:11:23;;;;;;;6.50;1.48;;;8.30;99.90;;;;;;5082237;28;20028;-82
2022/11/29 07:13:49;;;;;;;3.58;1.30;;;8.30;99.90;;;;;;5076665;28;20047;-82
2022/11/29 07:16:32;;;;;;;4.75;1.50;;;8.40;99.90;;;;;;5077069;28;20497;-83
2022/11/29 07:18:58;;;;;;;2.42;1.20;;;8.40;99.90;;;;;;5080629;28;20035;-83
2022/11/29 07:21:34;;;;;;;6.05;1.30;;;8.40;99.90;;;;;;5083910;28;20464;-83
2022/11/29 07:24:13;;;;;;;6.65;1.92;;;8.40;99.90;;;;;;5081156;28;20104;-82
2022/11/29 07:26:44;;;;;;;3.97;1.70;;;8.40;99.90;;;;;;5076510;28;20020;-82
2022/11/29 07:30:00;;;;;;;2.63;1.55;;;8.40;99.90;;;;;;5076448;28;20930;-83
2022/11/29 07:32:37;;;;;;;3.75;1.23;;;8.40;99.90;;;;;;5022449;28;20022;-83
2022/11/29 07:35:28;;;;;;;3.30;1.33;;;8.40;99.90;;;;;;5031258;28;20037;-84
2022/11/29 07:37:59;;;;;;;3.85;1.67;;;8.40;99.90;;;;;;5031183;28;20017;-84
2022/11/29 07:40:43;;;;;;;2.50;1.25;;;8.40;99.90;;;;;;5010950;28;20079;-84
2022/11/29 07:43:34;;;;;;;3.72;1.40;;;8.40;99.90;;;;;;5022759;28;20051;-84
2022/11/29 07:46:00;;;;;;;3.67;1.85;;;8.50;99.90;;;;;;5028368;28;20578;-84
2022/11/29 07:48:26;;;;;;;3.72;1.40;;;8.50;99.90;;;;;;5013976;28;20542;-84
2022/11/29 07:50:53;;;;;;;3.08;1.63;;;8.50;99.90;;;;;;5025718;28;20040;-84
2022/11/29 07:53:21;;;;;;;4.40;1.33;;;8.50;99.90;;;;;;5039562;28;20030;-84
2022/11/29 07:55:48;;;;;;;5.85;1.85;;;8.60;99.90;;;;;;5002776;28;20608;-82
2022/11/29 07:58:15;;;;;;;2.05;1.27;;;8.60;99.90;;;;;;5030815;28;20499;-83
2022/11/29 08:00:42;;;;;;;3.83;1.30;;;8.60;99.90;;;;;;5038407;28;20041;-84
2022/11/29 08:03:08;;;;;;;3.08;1.20;;;8.60;99.90;;;;;;5030871;28;20038;-84
2022/11/29 08:05:35;;;;;;;3.88;1.88;;;8.60;99.90;;;;;;5040072;28;20071;-83
2022/11/29 08:08:00;;;;;;;3.70;1.77;;;8.70;99.90;;;;;;5080824;28;20097;-83
2022/11/29 08:10:26;;;;;;;5.32;1.65;;;8.60;99.90;;;;;;5081183;28;20490;-85
2022/11/29 08:12:53;;;;;;;3.33;1.63;;;8.70;99.90;;;;;;5073429;28;20498;-85
2022/11/29 08:15:20;;;;;;;4.43;1.90;;;8.70;99.90;;;;;;5076249;28;20520;-85
2022/11/29 08:17:46;;;;;;;3.55;1.85;;;8.70;99.90;;;;;;5072416;28;20013;-83
2022/11/29 08:20:13;;;;;;;6.15;1.52;;;8.80;99.90;;;;;;5079060;28;20405;-83
2022/11/29 08:22:39;;;;;;;2.58;1.55;;;8.90;99.90;;;;;;5072453;28;20111;-83
2022/11/29 08:25:06;;;;;;;2.75;1.25;;;8.90;99.90;;;;;;5076962;28;20127;-83
2022/11/29 08:27:32;;;;;;;4.03;1.45;;;9.00;99.90;;;;;;5070310;28;20029;-83
2022/11/29 08:29:58;;;;;;;3.92;1.48;;;9.00;99.90;;;;;;5073124;28;20055;-83
2022/11/29 08:32:26;;;;;;;4.40;1.38;;;9.10;99.90;;;;;;5075302;28;20016;-83
2022/11/29 08:34:51;;;;;;;1.98;1.27;;;9.00;99.90;;;;;;5070276;28;20122;-83
2022/11/29 08:37:17;;;;;;;2.83;1.10;;;9.00;99.90;;;;;;5071347;28;20056;-84
2022/11/29 08:39:43;;;;;;;1.98;1.25;;;9.00;99.90;;;;;;5084014;28;20032;-83
2022/11/29 08:42:08;;;;;;;3.72;1.20;;;9.00;99.90;;;;;;5085183;28;20032;-84
2022/11/29 08:44:34;;;;;;;2.83;1.30;;;9.10;99.90;;;;;;5075924;28;20034;-83
2022/11/29 08:50:02;;;;;;;2.30;1.20;;;9.20;99.90;;;;;;5081418;28;20034;-83
2022/11/29 08:55:14;;;;;;;4.32;1.58;;;9.20;99.90;;;;;;5078930;28;20038;-84
2022/11/29 08:57:39;;;;;;;3.67;1.20;;;9.20;99.90;;;;;;5085591;28;20023;-84
2022/11/29 09:00:06;;;;;;;3.42;1.15;;;9.30;99.90;;;;;;5077149;28;20028;-83
2022/11/29 09:02:31;;;;;;;3.17;1.02;;;9.40;99.90;;;;;;5070851;28;20020;-83
2022/11/29 09:04:57;;;;;;;3.55;1.40;;;9.40;99.90;;;;;;5090437;28;20556;-84
2022/11/29 09:07:23;;;;;;;1.52;0.90;;;9.40;99.90;;;;;;5070715;28;20017;-84
2022/11/29 09:09:48;;;;;;;1.73;1.05;;;9.50;99.90;;;;;;5074281;28;20463;-83
2022/11/29 09:12:14;;;;;;;1.33;0.90;;;9.50;99.90;;;;;;5070496;28;20016;-82
2022/11/29 09:14:40;;;;;;;2.80;0.90;;;9.60;99.90;;;;;;5072736;28;20486;-83
2022/11/29 09:17:05;;;;;;;1.90;1.10;;;9.60;99.90;;;;;;5068949;28;20405;-83
2022/11/29 09:19:31;;;;;;;3.42;1.20;;;9.60;99.90;;;;;;5073323;28;20533;-84
2022/11/29 09:21:57;;;;;;;2.90;1.20;;;9.70;99.90;;;;;;5070535;28;20486;-83
2022/11/29 09:24:22;;;;;;;1.10;0.90;;;9.70;99.90;;;;;;5070601;28;20094;-83
2022/11/29 09:26:48;;;;;;;1.60;0.88;;;9.70;99.90;;;;;;5083832;28;20103;-83
2022/11/29 09:29:15;;;;;;;3.60;1.27;;;9.80;99.90;;;;;;5069506;28;20135;-83
2022/11/29 09:31:43;;;;;;;2.60;1.00;;;9.90;99.90;;;;;;5090217;28;20017;-82
2022/11/29 09:34:12;;;;;;;1.92;1.02;;;9.90;99.90;;;;;;5068820;28;20025;-83
2022/11/29 09:36:39;;;;;;;2.78;0.95;;;10.00;99.90;;;;;;5091536;28;20028;-83
2022/11/29 09:39:04;;;;;;;1.77;0.93;;;10.00;99.90;;;;;;5083618;28;20516;-83
2022/11/29 09:42:13;;;;;;;0.90;0.63;;;10.00;99.90;;;;;;5088830;28;20068;-82
2022/11/29 09:44:50;;;;;;;2.28;0.90;;;10.00;99.90;;;;;;5077417;28;20032;-82
2022/11/29 09:47:28;;;;;;;4.05;1.85;;;10.00;99.90;;;;;;5074874;28;20111;-82
2022/11/29 09:49:59;;;;;;;3.22;1.25;;;10.00;99.90;;;;;;5092943;28;20036;-83
2022/11/29 09:52:49;;;;;;;5.45;3.22;;;10.00;99.90;;;;;;5074788;28;20103;-82
2022/11/29 09:55:48;;;;;;;5.05;2.80;;;10.00;99.90;;;;;;5073290;28;20032;-81
2022/11/29 09:58:20;;;;;;;4.03;2.50;;;10.00;99.90;;;;;;5069639;28;20029;-82
2022/11/29 10:00:50;;;;;;;;;;;10.00;99.90;;;;;;5084107;28;20098;-82
2022/11/29 10:03:25;;;;;;;6.03;2.25;;;9.90;99.90;;;;;;5079922;28;19908;-82
2022/11/29 10:05:58;;;;;;;4.20;2.00;;;9.90;99.90;;;;;;5071200;28;20028;-82
2022/11/29 10:08:24;;;;;;;2.38;1.65;;;10.00;99.90;;;;;;5068176;28;20111;-82
2022/11/29 10:10:55;;;;;;;2.50;1.42;;;10.10;99.90;;;;;;5070506;28;20107;-83
2022/11/29 10:13:36;;;;;;;3.10;1.70;;;10.30;99.90;;;;;;5067898;28;20020;-83
2022/11/29 10:16:19;;;;;;;2.08;1.50;;;10.40;99.90;;;;;;5077539;28;20071;-83
2022/11/29 10:19:00;;;;;;;2.30;1.40;;;10.40;99.90;;;;;;5070098;28;20027;-85
2022/11/29 10:21:35;;;;;;;2.15;1.33;;;10.50;99.90;;;;;;5093581;28;20043;-83
2022/11/29 10:24:06;;;;;;;1.42;0.98;;;10.50;99.90;;;;;;5069210;28;20090;-83
2022/11/29 10:26:32;;;;;;;1.77;1.20;;;10.60;99.90;;;;;;5078793;28;20115;-82
2022/11/29 10:28:58;;;;;;;1.30;0.90;;;10.70;99.90;;;;;;5069242;28;20044;-83
2022/11/29 10:31:30;;;;;;;1.30;0.88;;;10.80;99.90;;;;;;5082506;28;20103;-83
2022/11/29 10:33:59;;;;;;;1.27;1.00;;;10.90;99.90;;;;;;5069803;28;20099;-83
2022/11/29 10:36:58;;;;;;;2.15;1.25;;;11.00;99.90;;;;;;5081536;28;20029;-83
2022/11/29 10:39:38;;;;;;;3.53;1.50;;;11.00;99.90;;;;;;5077045;28;20036;-83
2022/11/29 10:42:47;;;;;;;2.30;1.20;;;11.10;99.90;;;;;;5083404;28;20146;-82
2022/11/29 10:44:58;;;;;;;3.30;1.13;;;11.20;99.90;;;;;;5073291;28;20418;-84
2022/11/29 10:47:24;;;;;;;2.10;1.00;;;11.20;99.90;;;;;;5078341;28;20316;-84
2022/11/29 10:49:50;;;;;;;3.30;1.40;;;11.30;99.90;;;;;;5089622;28;20444;-84
2022/11/29 10:52:19;;;;;;;3.20;1.38;;;11.30;99.90;;;;;;5071895;28;20021;-84
2022/11/29 10:54:45;;;;;;;1.92;0.90;;;11.20;99.90;;;;;;5069185;28;20029;-84
2022/11/29 10:57:20;;;;;;;1.75;1.13;;;11.30;99.90;;;;;;5070560;28;20033;-84
2022/11/29 10:59:59;;;;;;;1.73;1.00;;;11.40;99.90;;;;;;5074950;28;20024;-84
2022/11/29 11:02:26;;;;;;;2.28;0.90;;;11.50;99.90;;;;;;5075096;28;20093;-84
2022/11/29 11:04:52;;;;;;;2.30;1.10;;;11.60;99.90;;;;;;5081192;28;20032;-84
2022/11/29 11:07:29;;;;;;;3.03;1.33;;;11.60;99.90;;;;;;5094958;28;20028;-85
2022/11/29 11:09:56;;;;;;;4.47;1.10;;;11.50;99.90;;;;;;5073124;28;20064;-84
2022/11/29 11:12:31;;;;;;;3.22;1.30;;;11.40;99.90;;;;;;5094477;28;20029;-83
2022/11/29 11:15:28;;;;;;;2.15;1.33;;;11.40;99.90;;;;;;5072326;28;20136;-83
2022/11/29 11:18:02;;;;;;;4.85;1.90;;;11.40;99.90;;;;;;5072333;28;20032;-83
2022/11/29 11:20:36;;;;;;;3.78;1.40;;;11.50;99.90;;;;;;5077426;28;20031;-84
2022/11/29 11:23:19;;;;;;;4.88;1.50;;;11.50;99.90;;;;;;5080392;27;20359;-84
2022/11/29 11:25:48;;;;;;;4.30;1.70;;;11.40;99.90;;;;;;5077930;28;20031;-83
2022/11/29 11:28:24;;;;;;;3.88;1.50;;;11.40;99.90;;;;;;5073127;28;20502;-84
2022/11/29 11:30:57;;;;;;;3.65;1.38;;;11.50;99.90;;;;;;5078473;28;20129;-85
2022/11/29 11:33:29;;;;;;;2.17;1.15;;;11.50;99.90;;;;;;5072520;28;20017;-82
2022/11/29 11:36:05;;;;;;;;;;;11.50;99.90;;;;;;5076839;28;20024;-83
2022/11/29 11:38:32;;;;;;;2.10;1.10;;;11.50;99.90;;;;;;5071328;28;20002;-83
2022/11/29 11:42:35;;;;;;;1.83;1.27;;;11.50;99.90;;;;;;5079744;28;20410;-82
2022/11/29 11:44:39;;;;;;;4.07;1.50;;;11.50;99.90;;;;;;5072116;28;21346;-82
2022/11/29 11:47:11;;;;;;;2.97;1.33;;;11.40;99.90;;;;;;5074143;28;20039;-83
2022/11/29 11:50:03;;;;;;;2.50;1.10;;;11.40;99.90;;;;;;5090846;28;20062;-82
2022/11/29 11:52:44;;;;;;;2.58;1.10;;;11.40;99.90;;;;;;5099739;28;20025;-82
2022/11/29 11:55:24;;;;;;;2.58;1.05;;;11.30;99.90;;;;;;5072545;28;20025;-82
2022/11/29 11:58:11;;;;;;;2.27;1.23;;;11.40;99.90;;;;;;5073782;28;20025;-82
2022/11/29 12:00:42;;;;;;;3.47;1.83;;;11.50;99.90;;;;;;5087068;28;20028;-82
2022/11/29 12:03:44;;;;;;;3.13;1.98;;;11.60;99.90;;;;;;5087062;28;20111;-82
2022/11/29 12:06:38;;;;;;;4.07;2.05;;;11.60;99.90;;;;;;5081388;28;20513;-82
2022/11/29 12:09:36;;;;;;;4.07;1.75;;;11.40;99.90;;;;;;5071663;28;20032;-82
2022/11/29 12:12:29;;;;;;;9.23;2.72;;;11.60;99.90;;;;;;5074621;28;20044;-81
2022/11/29 12:15:23;;;;;;;2.95;1.60;;;11.90;99.90;;;;;;5071909;28;20023;-82
2022/11/29 12:17:59;;;;;;;2.97;2.05;;;12.10;99.90;;;;;;5062778;28;20540;-82
2022/11/29 12:20:48;;;;;;;5.93;2.92;;;12.40;99.90;;;;;;5070710;28;20032;-82
2022/11/29 12:23:14;;;;;;;4.53;2.83;;;12.70;99.90;;;;;;5088855;28;20124;-82
2022/11/29 12:26:10;;;;;;;6.47;2.95;;;12.80;99.90;;;;;;5092200;28;20401;-81
2022/11/29 12:28:41;;;;;;;5.30;3.10;;;12.50;99.90;;;;;;5071186;28;20055;-82
2022/11/29 12:31:28;;;;;;;2.85;1.70;;;12.40;99.90;;;;;;5087233;28;20039;-82
2022/11/29 12:34:16;;;;;;;4.38;2.00;;;12.30;99.90;;;;;;5070075;28;20028;-82
2022/11/29 12:36:44;;;;;;;2.63;1.75;;;12.30;99.90;;;;;;5072418;28;20029;-81
2022/11/29 12:39:38;;;;;;;1.33;1.05;;;12.40;99.90;;;;;;5071699;28;20028;-81
2022/11/29 12:42:35;;;;;;;3.45;1.40;;;12.60;99.90;;;;;;5083755;28;20032;-81
2022/11/29 12:45:18;;;;;;;5.15;1.70;;;13.20;99.90;;;;;;5029068;28;20037;-82
2022/11/29 12:48:12;;;;;;;4.28;1.63;;;13.30;99.90;;;;;;5028668;28;20033;-82
2022/11/29 12:50:52;;;;;;;4.75;1.60;;;13.20;99.90;;;;;;4992977;28;20068;-82
2022/11/29 12:53:44;;;;;;;4.45;1.73;;;13.30;99.90;;;;;;4989946;28;20045;-82
2022/11/29 12:56:25;;;;;;;3.30;1.50;;;13.60;99.90;;;;;;4973227;28;20523;-81
2022/11/29 12:58:57;;;;;;;3.38;2.13;;;13.60;99.90;;;;;;4988476;28;20030;-82
2022/11/29 13:01:40;;;;;;;;;;;13.50;99.90;;;;;;4988922;28;20042;-82
2022/11/29 13:04:26;;;;;;;3.95;1.70;;;13.70;99.90;;;;;;4977362;28;19906;-81
2022/11/29 13:07:13;;;;;;;6.53;2.80;;;13.40;99.90;;;;;;4962536;28;20054;-82
2022/11/29 13:10:07;;;;;;;5.50;2.35;;;13.40;99.90;;;;;;4988524;28;20038;-81
2022/11/29 13:12:43;;;;;;;3.97;1.83;;;13.60;99.90;;;;;;4984183;28;20030;-81
2022/11/29 13:15:16;;;;;;;5.57;3.03;;;13.70;99.90;;;;;;4986807;28;20031;-82
2022/11/29 13:17:57;;;;;;;6.63;3.08;;;13.70;99.90;;;;;;4989299;28;20038;-82
2022/11/29 13:20:40;;;;;;;6.37;3.00;;;13.60;99.90;;;;;;4987997;28;20046;-82
2022/11/29 13:23:14;;;;;;;6.20;2.55;;;13.50;99.90;;;;;;5008604;28;20272;-82
2022/11/29 13:25:44;;;;;;;6.22;2.17;;;13.50;99.90;;;;;;5008753;28;20029;-82
2022/11/29 13:28:24;;;;;;;3.63;2.42;;;13.80;99.90;;;;;;5076349;28;20123;-82
2022/11/29 13:30:51;;;;;;;4.85;2.00;;;13.60;99.90;;;;;;5071497;28;20096;-82
2022/11/29 13:33:25;;;;;;;3.60;1.88;;;13.50;99.90;;;;;;5094289;28;20029;-83
2022/11/29 13:36:07;;;;;;;4.18;1.48;;;13.40;99.90;;;;;;5070119;28;20048;-83
2022/11/29 13:38:44;;;;;;;3.65;1.60;;;13.00;99.90;;;;;;5070081;28;20021;-82
2022/11/29 13:41:33;;;;;;;2.55;1.50;;;12.60;99.90;;;;;;5077437;28;20017;-82
2022/11/29 13:44:24;;;;;;;2.70;1.63;;;12.30;99.90;;;;;;5077402;28;20032;-83
2022/11/29 13:47:05;;;;;;;5.20;1.93;;;12.10;99.90;;;;;;5076820;28;20099;-83
2022/11/29 13:49:52;;;;;;;6.22;2.03;;;11.80;99.90;;;;;;5070274;28;20032;-83
2022/11/29 13:52:39;;;;;;;3.85;2.15;;;11.60;99.90;;;;;;5075970;28;20092;-82